createdAt,value
2023-01-27T00:01:09.641Z,100808.50
2023-01-27T00:03:37.764Z,100799.59
2023-01-27T00:06:06.612Z,100810.75
2023-01-27T00:08:34.726Z,100807.53
2023-01-27T00:11:21.326Z,100814.19
2023-01-27T00:13:49.413Z,100813.28
2023-01-27T00:16:17.268Z,100819.25
2023-01-27T00:18:45.298Z,100822.94
2023-01-27T00:21:31.752Z,100814.94
2023-01-27T00:24:18.320Z,100819.13
2023-01-27T00:26:45.973Z,100820.88
2023-01-27T00:29:13.919Z,100816.91
2023-01-27T00:32:00.292Z,100818.03
2023-01-27T00:34:28.273Z,100821.47
2023-01-27T00:36:55.929Z,100829.94
2023-01-27T00:39:23.859Z,100833.59
2023-01-27T00:41:51.528Z,100829.94
2023-01-27T00:44:19.661Z,100833.56
2023-01-27T00:46:47.413Z,100833.56
2023-01-27T00:49:15.795Z,100830.13
2023-01-27T00:51:43.715Z,100830.84
2023-01-27T00:54:12.211Z,100834.16
2023-01-27T00:56:39.940Z,100837.53
2023-01-27T00:59:07.891Z,100840.91
2023-01-27T01:01:35.737Z,100828.03
2023-01-27T01:04:04.341Z,100826.56
2023-01-27T01:06:32.267Z,100829.03
2023-01-27T01:09:00.369Z,100831.47
2023-01-27T01:11:28.162Z,100840.72
2023-01-27T01:13:56.806Z,100827.81
2023-01-27T01:16:25.692Z,100826.41
2023-01-27T01:18:54.070Z,100831.31
2023-01-27T01:21:22.470Z,100821.25
2023-01-27T01:23:50.538Z,100817.91
2023-01-27T01:26:18.648Z,100824.75
2023-01-27T01:28:47.074Z,100828.94
2023-01-27T01:31:20.038Z,100823.09
2023-01-27T01:33:49.085Z,100814.28
2023-01-27T01:36:19.553Z,100820.47
2023-01-27T01:38:48.540Z,100829.91
2023-01-27T01:41:20.526Z,100821.19
2023-01-27T01:43:50.265Z,100817.69
2023-01-27T01:46:19.153Z,100821.97
2023-01-27T01:48:49.632Z,100820.22
2023-01-27T01:51:29.296Z,100830.44
2023-01-27T01:54:38.703Z,100829.50
2023-01-27T01:57:29.690Z,100830.63
2023-01-27T02:00:06.966Z,100819.41
2023-01-27T02:02:42.251Z,100825.28
2023-01-27T02:05:14.325Z,100826.91
2023-01-27T02:08:01.495Z,100814.34
2023-01-27T02:10:29.708Z,100812.34
2023-01-27T02:12:57.444Z,100816.63
2023-01-27T02:15:25.868Z,100817.44
2023-01-27T02:17:54.021Z,100820.94
2023-01-27T02:20:50.139Z,100818.38
2023-01-27T02:23:27.796Z,100815.06
2023-01-27T02:26:10.433Z,100814.22
2023-01-27T02:28:38.174Z,100823.56
2023-01-27T02:31:06.174Z,100831.22
2023-01-27T02:33:35.124Z,100825.22
2023-01-27T02:36:10.827Z,100827.09
2023-01-27T02:38:51.434Z,100828.75
2023-01-27T02:41:26.594Z,100826.94
2023-01-27T02:43:55.962Z,100825.97
2023-01-27T02:46:23.983Z,100824.41
2023-01-27T02:48:52.065Z,100829.44
2023-01-27T02:51:20.382Z,100825.16
2023-01-27T02:53:49.292Z,100829.53
2023-01-27T02:56:17.346Z,100822.84
2023-01-27T02:58:45.337Z,100830.69
2023-01-27T03:01:17.684Z,100830.56
2023-01-27T03:03:47.464Z,100825.56
2023-01-27T03:06:20.725Z,100828.13
2023-01-27T03:08:48.908Z,100826.59
2023-01-27T03:11:40.131Z,100825.53
2023-01-27T03:14:09.011Z,100836.72
2023-01-27T03:16:55.544Z,100834.75
2023-01-27T03:19:23.240Z,100830.38
2023-01-27T03:21:52.840Z,100836.28
2023-01-27T03:24:22.879Z,100832.72
2023-01-27T03:26:55.657Z,100835.34
2023-01-27T03:30:05.135Z,100838.97
2023-01-27T03:32:33.887Z,100832.84
2023-01-27T03:35:38.865Z,100833.59
2023-01-27T03:38:30.967Z,100828.00
2023-01-27T03:41:17.417Z,100829.59
2023-01-27T03:44:04.117Z,100833.75
2023-01-27T03:46:32.900Z,100832.81
2023-01-27T03:49:01.099Z,100840.56
2023-01-27T03:51:28.769Z,100833.00
2023-01-27T03:53:56.747Z,100837.88
2023-01-27T03:56:24.593Z,100833.22
2023-01-27T03:58:52.608Z,100835.53
2023-01-27T04:01:23.046Z,100841.41
2023-01-27T04:04:10.898Z,100845.44
2023-01-27T04:07:14.063Z,100849.69
2023-01-27T04:09:42.011Z,100846.38
2023-01-27T04:12:10.907Z,100842.91
2023-01-27T04:14:43.079Z,100842.25
2023-01-27T04:17:18.034Z,100850.25
2023-01-27T04:19:47.104Z,100853.50
2023-01-27T04:22:16.273Z,100855.28
2023-01-27T04:24:44.589Z,100860.50
2023-01-27T04:27:15.673Z,100869.84
2023-01-27T04:29:43.811Z,100867.53
2023-01-27T04:32:13.477Z,100857.94
2023-01-27T04:34:42.297Z,100868.91
2023-01-27T04:37:10.594Z,100857.09
2023-01-27T04:39:38.761Z,100865.66
2023-01-27T04:42:06.452Z,100858.66
2023-01-27T04:44:34.463Z,100857.03
2023-01-27T04:47:02.076Z,100868.28
2023-01-27T04:49:29.954Z,100859.44
2023-01-27T04:51:57.650Z,100855.88
2023-01-27T04:54:25.559Z,100865.91
2023-01-27T04:56:59.292Z,100872.22
2023-01-27T04:59:27.940Z,100871.19
2023-01-27T05:01:55.802Z,100865.88
2023-01-27T05:04:26.300Z,100869.06
2023-01-27T05:06:54.622Z,100871.38
2023-01-27T05:09:22.839Z,100868.63
2023-01-27T05:11:50.709Z,100871.88
2023-01-27T05:14:18.753Z,100873.84
2023-01-27T05:16:46.486Z,100874.59
2023-01-27T05:19:14.504Z,100875.06
2023-01-27T05:21:43.399Z,100879.19
2023-01-27T05:24:12.023Z,100881.81
2023-01-27T05:26:40.699Z,100889.41
2023-01-27T05:29:10.198Z,100895.22
2023-01-27T05:31:38.352Z,100891.94
2023-01-27T05:34:06.736Z,100893.72
2023-01-27T05:36:34.797Z,100896.41
2023-01-27T05:39:02.732Z,100904.97
2023-01-27T05:41:31.557Z,100910.13
2023-01-27T05:44:00.174Z,100906.09
2023-01-27T05:46:29.998Z,100902.63
2023-01-27T05:49:01.573Z,100898.50
2023-01-27T05:51:35.127Z,100908.50
2023-01-27T05:54:03.979Z,100906.66
2023-01-27T05:56:32.040Z,100905.88
2023-01-27T05:59:00.326Z,100915.31
2023-01-27T06:01:31.308Z,100913.53
2023-01-27T06:04:00.206Z,100910.19
2023-01-27T06:06:30.183Z,100914.31
2023-01-27T06:08:58.632Z,100917.19
2023-01-27T06:11:26.715Z,100919.97
2023-01-27T06:13:55.249Z,100934.56
2023-01-27T06:16:24.149Z,100934.50
2023-01-27T06:18:52.235Z,100936.16
2023-01-27T06:21:20.900Z,100940.06
2023-01-27T06:23:49.942Z,100943.72
2023-01-27T06:26:19.999Z,100943.53
2023-01-27T06:28:48.260Z,100943.59
2023-01-27T06:31:18.585Z,100949.53
2023-01-27T06:33:46.661Z,100953.81
2023-01-27T06:36:17.454Z,100959.03
2023-01-27T06:38:46.899Z,100953.88
2023-01-27T06:41:14.689Z,100959.22
2023-01-27T06:43:42.631Z,100961.81
2023-01-27T06:46:10.559Z,100960.97
2023-01-27T06:48:38.682Z,100950.16
2023-01-27T06:51:06.737Z,100957.16
2023-01-27T06:53:37.339Z,100954.66
2023-01-27T06:56:06.036Z,100959.91
2023-01-27T06:58:34.045Z,100960.69
2023-01-27T07:01:03.775Z,100956.56
2023-01-27T07:03:31.801Z,100953.16
2023-01-27T07:05:59.516Z,100966.16
2023-01-27T07:08:27.570Z,100966.13
2023-01-27T07:10:55.252Z,100962.28
2023-01-27T07:13:23.550Z,100955.44
2023-01-27T07:15:56.293Z,100952.28
2023-01-27T07:18:24.618Z,100957.63
2023-01-27T07:20:52.517Z,100964.53
2023-01-27T07:23:20.512Z,100963.22
2023-01-27T07:25:48.345Z,100964.78
2023-01-27T07:28:16.220Z,100965.25
2023-01-27T07:30:44.217Z,100962.94
2023-01-27T07:33:14.646Z,100963.72
2023-01-27T07:35:42.973Z,100975.13
2023-01-27T07:38:11.100Z,100963.03
2023-01-27T07:40:38.935Z,100968.31
2023-01-27T07:43:06.868Z,100958.84
2023-01-27T07:45:37.827Z,100967.56
2023-01-27T07:48:09.760Z,100969.13
2023-01-27T07:50:39.164Z,100965.53
2023-01-27T07:53:07.350Z,100970.03
2023-01-27T07:55:35.189Z,100968.31
2023-01-27T07:58:03.297Z,100965.81
2023-01-27T08:00:32.032Z,100972.94
2023-01-27T08:03:01.408Z,100968.09
2023-01-27T08:05:32.083Z,100964.66
2023-01-27T08:08:03.870Z,100973.34
2023-01-27T08:10:31.899Z,100971.69
2023-01-27T08:12:59.890Z,100976.03
2023-01-27T08:15:27.697Z,100977.78
2023-01-27T08:17:57.392Z,100969.13
2023-01-27T08:20:27.427Z,100971.81
2023-01-27T08:22:56.088Z,100975.34
2023-01-27T08:25:24.603Z,100979.66
2023-01-27T08:27:54.114Z,100976.19
2023-01-27T08:30:22.682Z,100974.44
2023-01-27T08:32:51.053Z,100982.13
2023-01-27T08:35:19.045Z,100977.97
2023-01-27T08:37:48.864Z,100981.44
2023-01-27T08:40:17.611Z,100978.75
2023-01-27T08:42:45.579Z,100969.19
2023-01-27T08:45:13.749Z,100989.72
2023-01-27T08:47:41.727Z,100985.41
2023-01-27T08:50:10.787Z,100981.97
2023-01-27T08:52:39.234Z,100987.13
2023-01-27T08:55:07.416Z,100981.91
2023-01-27T08:57:36.950Z,100986.34
2023-01-27T09:00:07.211Z,100986.41
2023-01-27T09:02:35.739Z,100988.16
2023-01-27T09:05:04.054Z,100983.06
2023-01-27T09:07:33.275Z,100982.22
2023-01-27T09:10:13.720Z,100995.16
2023-01-27T09:12:43.994Z,100995.75
2023-01-27T09:15:12.925Z,100995.75
2023-01-27T09:17:41.314Z,100996.59
2023-01-27T09:20:10.570Z,100992.50
2023-01-27T09:22:42.063Z,100990.66
2023-01-27T09:25:14.350Z,100994.84
2023-01-27T09:27:42.995Z,100995.75
2023-01-27T09:30:13.225Z,100993.19
2023-01-27T09:32:42.485Z,100988.91
2023-01-27T09:35:10.642Z,101002.63
2023-01-27T09:37:54.283Z,100994.13
2023-01-27T09:40:46.498Z,100992.59
2023-01-27T09:43:27.956Z,100991.78
2023-01-27T09:46:04.281Z,101000.56
2023-01-27T09:48:59.013Z,100985.97
2023-01-27T09:51:51.594Z,100985.94
2023-01-27T09:54:29.722Z,100986.81
2023-01-27T09:57:18.358Z,100986.72
2023-01-27T10:00:20.949Z,100986.69
2023-01-27T10:03:26.469Z,100997.84
2023-01-27T10:06:12.739Z,100995.28
2023-01-27T10:09:07.999Z,100985.78
2023-01-27T10:12:09.830Z,100990.91
2023-01-27T10:15:11.039Z,100990.91
2023-01-27T10:18:13.712Z,100990.09
2023-01-27T10:21:09.660Z,100997.84
2023-01-27T10:23:49.506Z,101003.91
2023-01-27T10:26:50.076Z,101003.91
2023-01-27T10:29:40.058Z,101008.22
2023-01-27T10:32:38.882Z,100999.66
2023-01-27T10:35:21.135Z,101002.28
2023-01-27T10:38:27.122Z,101011.00
2023-01-27T10:41:19.594Z,101015.34
2023-01-27T10:44:05.931Z,101016.22
2023-01-27T10:46:53.537Z,101019.66
2023-01-27T10:49:43.232Z,101024.00
2023-01-27T10:52:27.040Z,101025.69
2023-01-27T10:55:07.410Z,101033.44
2023-01-27T10:57:45.761Z,101021.25
2023-01-27T11:03:32.511Z,101036.63
2023-01-27T11:06:15.660Z,101030.56
2023-01-27T11:08:50.361Z,101024.53
2023-01-27T11:11:40.899Z,101015.88
2023-01-27T11:14:16.605Z,101021.88
2023-01-27T11:16:50.119Z,101022.78
2023-01-27T11:19:26.059Z,101011.47
2023-01-27T11:22:06.576Z,101013.22
2023-01-27T11:24:52.203Z,101011.44
2023-01-27T11:27:27.890Z,101002.06
2023-01-27T11:30:02.519Z,101004.69
2023-01-27T11:32:59.517Z,100997.75
2023-01-27T11:35:27.762Z,100997.91
2023-01-27T11:38:06.365Z,100997.75
2023-01-27T11:40:45.527Z,100999.53
2023-01-27T11:43:26.746Z,100997.91
2023-01-27T11:46:02.140Z,100986.72
2023-01-27T11:48:41.445Z,100986.78
2023-01-27T11:51:35.610Z,100985.91
2023-01-27T11:54:18.208Z,100992.78
2023-01-27T11:56:48.950Z,100987.38
2023-01-27T11:59:24.525Z,100996.94
2023-01-27T12:01:55.296Z,100994.41
2023-01-27T12:04:25.265Z,100988.34
2023-01-27T12:07:19.519Z,100981.38
2023-01-27T12:09:47.277Z,100985.78
2023-01-27T12:12:25.215Z,100988.44
2023-01-27T12:14:54.845Z,100984.13
2023-01-27T12:17:44.218Z,100977.00
2023-01-27T12:20:39.301Z,100985.72
2023-01-27T12:23:23.360Z,100988.19
2023-01-27T12:25:58.013Z,100978.75
2023-01-27T12:28:46.169Z,100983.13
2023-01-27T12:31:22.896Z,100986.63
2023-01-27T12:34:05.724Z,100981.22
2023-01-27T12:36:44.652Z,100978.72
2023-01-27T12:39:44.390Z,100981.34
2023-01-27T12:42:38.685Z,100985.75
2023-01-27T12:45:34.909Z,100986.56
2023-01-27T12:48:23.010Z,100993.31
2023-01-27T12:50:51.079Z,100992.31
2023-01-27T12:53:28.129Z,100992.28
2023-01-27T12:55:58.481Z,100995.78
2023-01-27T12:58:31.662Z,100994.88
2023-01-27T13:01:03.717Z,100994.16
2023-01-27T13:03:36.232Z,100985.41
2023-01-27T13:06:04.423Z,100989.75
2023-01-27T13:08:34.757Z,100990.63
2023-01-27T13:11:05.052Z,100987.97
2023-01-27T13:13:33.742Z,100990.31
2023-01-27T13:16:23.363Z,100995.56
2023-01-27T13:18:57.099Z,100988.44
2023-01-27T13:21:37.687Z,100990.09
2023-01-27T13:24:12.925Z,100996.06
2023-01-27T13:26:41.764Z,100998.59
2023-01-27T13:29:09.469Z,101000.38
2023-01-27T13:31:57.261Z,100997.81
2023-01-27T13:34:47.311Z,101002.22
2023-01-27T13:37:21.020Z,100998.03
2023-01-27T13:40:03.006Z,101002.19
2023-01-27T13:42:50.320Z,101002.06
2023-01-27T13:45:32.679Z,101003.69
2023-01-27T13:48:22.466Z,101010.38
2023-01-27T13:51:15.345Z,101004.38
2023-01-27T13:53:47.173Z,101012.19
2023-01-27T13:56:20.977Z,101008.78
2023-01-27T13:59:23.115Z,101013.72
2023-01-27T14:02:05.936Z,101008.47
2023-01-27T14:05:03.002Z,101005.88
2023-01-27T14:07:51.463Z,101015.25
2023-01-27T14:10:49.527Z,101015.09
2023-01-27T14:14:02.583Z,101018.31
2023-01-27T14:17:00.943Z,101017.56
2023-01-27T14:19:57.858Z,101010.06
2023-01-27T14:22:52.917Z,101011.91
2023-01-27T14:25:23.561Z,101009.94
2023-01-27T14:27:58.491Z,101014.22
2023-01-27T14:30:30.107Z,101023.63
2023-01-27T14:33:34.937Z,101018.56
2023-01-27T14:36:11.527Z,101020.31
2023-01-27T14:38:50.820Z,101030.63
2023-01-27T14:41:37.173Z,101031.44
2023-01-27T14:44:55.559Z,101022.00
2023-01-27T14:47:51.810Z,101023.81
2023-01-27T14:50:27.021Z,101027.16
2023-01-27T14:53:11.544Z,101021.28
2023-01-27T14:56:06.757Z,101025.41
2023-01-27T14:58:46.695Z,101027.81
2023-01-27T15:01:39.624Z,101026.03
2023-01-27T15:04:29.202Z,101020.91
2023-01-27T15:07:07.074Z,101023.56
2023-01-27T15:09:59.402Z,101031.28
2023-01-27T15:12:48.218Z,101025.41
2023-01-27T15:15:33.983Z,101030.50
2023-01-27T15:18:32.523Z,101024.56
2023-01-27T15:21:37.352Z,101029.63
2023-01-27T15:24:43.181Z,101029.44
2023-01-27T15:27:11.208Z,101028.41
2023-01-27T15:29:39.474Z,101037.84
2023-01-27T15:32:17.288Z,101035.16
2023-01-27T15:34:51.622Z,101035.47
2023-01-27T15:37:25.164Z,101040.72
2023-01-27T15:40:04.000Z,101048.47
2023-01-27T15:42:51.355Z,101052.81
2023-01-27T15:45:45.171Z,101055.09
2023-01-27T15:48:20.188Z,101056.78
2023-01-27T15:50:55.594Z,101050.84
2023-01-27T15:53:44.776Z,101050.94
2023-01-27T15:56:12.766Z,101064.72
2023-01-27T15:58:50.853Z,101061.19
2023-01-27T16:01:30.779Z,101052.66
2023-01-27T16:04:21.460Z,101054.38
2023-01-27T16:07:04.677Z,101053.50
2023-01-27T16:09:48.834Z,101063.75
2023-01-27T16:12:43.535Z,101055.41
2023-01-27T16:15:11.415Z,101055.41
2023-01-27T16:17:59.325Z,101064.97
2023-01-27T16:20:33.558Z,101060.66
2023-01-27T16:23:08.441Z,101057.13
2023-01-27T16:25:54.238Z,101065.50
2023-01-27T16:28:27.565Z,101060.97
2023-01-27T16:31:01.618Z,101066.28
2023-01-27T16:33:40.256Z,101074.09
2023-01-27T16:36:26.791Z,101071.53
2023-01-27T16:38:59.408Z,101065.72
2023-01-27T16:41:32.749Z,101073.28
2023-01-27T16:44:03.410Z,101071.41
2023-01-27T16:46:31.157Z,101078.47
2023-01-27T16:49:01.317Z,101070.78
2023-01-27T16:51:30.013Z,101076.03
2023-01-27T16:54:00.654Z,101082.91
2023-01-27T16:56:35.821Z,101076.88
2023-01-27T16:59:10.302Z,101060.44
2023-01-27T17:01:46.665Z,101073.44
2023-01-27T17:04:23.132Z,101070.78
2023-01-27T17:06:56.104Z,101078.59
2023-01-27T17:09:27.370Z,101075.00
2023-01-27T17:11:55.761Z,101081.91
2023-01-27T17:14:52.140Z,101072.75
2023-01-27T17:17:20.980Z,101066.44
2023-01-27T17:19:51.849Z,101070.72
2023-01-27T17:22:41.172Z,101070.63
2023-01-27T17:25:22.605Z,101081.00
2023-01-27T17:27:50.407Z,101081.59
2023-01-27T17:30:24.088Z,101083.28
2023-01-27T17:32:57.799Z,101077.94
2023-01-27T17:35:27.071Z,101080.75
2023-01-27T17:38:16.048Z,101087.38
2023-01-27T17:40:45.837Z,101073.59
2023-01-27T17:43:39.114Z,101078.63
2023-01-27T17:46:14.303Z,101081.03
2023-01-27T17:49:18.183Z,101082.84
2023-01-27T17:51:52.094Z,101089.66
2023-01-27T17:54:33.443Z,101079.19
2023-01-27T17:57:21.178Z,101088.03
2023-01-27T17:59:51.826Z,101091.16
2023-01-27T18:02:25.439Z,101101.41
2023-01-27T18:04:57.270Z,101099.75
2023-01-27T18:07:25.609Z,101103.03
2023-01-27T18:09:55.979Z,101108.81
2023-01-27T18:12:33.986Z,101101.72
2023-01-27T18:15:39.883Z,101093.34
2023-01-27T18:18:22.477Z,101095.75
2023-01-27T18:21:09.183Z,101096.63
2023-01-27T18:23:38.527Z,101108.50
2023-01-27T18:26:24.086Z,101100.09
2023-01-27T18:29:31.904Z,101098.13
2023-01-27T18:32:17.058Z,101099.94
2023-01-27T18:34:48.287Z,101101.84
2023-01-27T18:37:36.386Z,101108.59
2023-01-27T18:40:28.066Z,101113.53
2023-01-27T18:42:57.038Z,101105.63
2023-01-27T18:45:26.127Z,101116.94
2023-01-27T18:47:54.392Z,101121.25
2023-01-27T18:50:25.054Z,101120.50
2023-01-27T18:52:53.770Z,101121.38
2023-01-27T18:55:29.464Z,101120.06
2023-01-27T18:57:59.683Z,101128.88
2023-01-27T19:00:36.000Z,101140.34
2023-01-27T19:03:07.585Z,101140.50
2023-01-27T19:05:36.699Z,101136.06
2023-01-27T19:08:05.100Z,101139.66
2023-01-27T19:10:34.696Z,101144.81
2023-01-27T19:13:03.853Z,101128.34
2023-01-27T19:15:35.121Z,101145.63
2023-01-27T19:18:23.058Z,101144.84
2023-01-27T19:20:52.343Z,101144.69
2023-01-27T19:23:20.982Z,101144.75
2023-01-27T19:25:53.360Z,101154.31
2023-01-27T19:28:31.153Z,101157.75
2023-01-27T19:31:00.197Z,101152.50
2023-01-27T19:33:29.516Z,101156.91
2023-01-27T19:36:16.818Z,101159.53
2023-01-27T19:38:44.540Z,101161.09
2023-01-27T19:41:12.558Z,101162.72
2023-01-27T19:43:41.953Z,101167.78
2023-01-27T19:46:22.123Z,101169.78
2023-01-27T19:48:49.972Z,101176.50
2023-01-27T19:51:18.913Z,101168.66
2023-01-27T19:53:47.419Z,101180.03
2023-01-27T19:56:18.809Z,101173.09
2023-01-27T19:58:51.479Z,101168.84
2023-01-27T20:01:20.545Z,101175.78
2023-01-27T20:03:48.817Z,101181.72
2023-01-27T20:06:25.339Z,101176.59
2023-01-27T20:08:59.541Z,101183.59
2023-01-27T20:11:35.795Z,101185.38
2023-01-27T20:14:06.331Z,101189.75
2023-01-27T20:16:34.490Z,101189.81
2023-01-27T20:19:02.208Z,101188.78
2023-01-27T20:21:34.519Z,101191.25
2023-01-27T20:24:02.800Z,101199.50
2023-01-27T20:26:32.456Z,101203.72
2023-01-27T20:29:00.617Z,101205.38
2023-01-27T20:31:28.817Z,101207.81
2023-01-27T20:33:56.611Z,101203.38
2023-01-27T20:36:24.838Z,101205.09
2023-01-27T20:38:52.931Z,101200.94
2023-01-27T20:41:23.986Z,101201.91
2023-01-27T20:44:00.618Z,101203.72
2023-01-27T20:46:29.850Z,101201.34
2023-01-27T20:48:59.556Z,101201.19
2023-01-27T20:51:27.556Z,101201.91
2023-01-27T20:53:55.305Z,101196.69
2023-01-27T20:56:24.616Z,101203.47
2023-01-27T20:58:52.442Z,101198.38
2023-01-27T21:01:22.785Z,101203.66
2023-01-27T21:03:50.933Z,101203.66
2023-01-27T21:06:20.123Z,101208.81
2023-01-27T21:08:49.834Z,101205.47
2023-01-27T21:11:20.603Z,101210.50
2023-01-27T21:13:49.932Z,101210.63
2023-01-27T21:16:18.331Z,101207.38
2023-01-27T21:18:46.231Z,101202.66
2023-01-27T21:21:29.401Z,101205.41
2023-01-27T21:24:00.040Z,101200.28
2023-01-27T21:26:28.403Z,101196.84
2023-01-27T21:28:57.254Z,101201.19
2023-01-27T21:31:30.042Z,101202.84
2023-01-27T21:34:01.302Z,101197.69
2023-01-27T21:36:29.398Z,101191.56
2023-01-27T21:38:57.829Z,101196.53
2023-01-27T21:41:44.926Z,101192.38
2023-01-27T21:44:40.318Z,101193.47
2023-01-27T21:47:17.555Z,101194.25
2023-01-27T21:50:02.227Z,101200.97
2023-01-27T21:52:39.274Z,101186.34
2023-01-27T21:55:18.322Z,101187.34
2023-01-27T21:57:48.614Z,101191.66
2023-01-27T22:00:18.782Z,101183.03
2023-01-27T22:03:03.281Z,101188.91
2023-01-27T22:05:33.038Z,101194.72
2023-01-27T22:08:02.100Z,101186.50
2023-01-27T22:10:30.741Z,101183.88
2023-01-27T22:13:01.369Z,101179.53
2023-01-27T22:15:29.164Z,101177.91
2023-01-27T22:17:58.662Z,101171.16
2023-01-27T22:20:27.442Z,101169.34
2023-01-27T22:22:55.692Z,101168.31
2023-01-27T22:25:24.834Z,101170.00
2023-01-27T22:27:55.395Z,101169.19
2023-01-27T22:30:23.752Z,101169.66
2023-01-27T22:32:52.023Z,101178.19
2023-01-27T22:35:19.843Z,101174.16
2023-01-27T22:37:49.199Z,101175.56
2023-01-27T22:40:17.367Z,101162.53
2023-01-27T22:42:45.462Z,101165.13
2023-01-27T22:45:13.729Z,101164.41
2023-01-27T22:47:42.030Z,101158.34
2023-01-27T22:50:10.522Z,101165.19
2023-01-27T22:52:39.623Z,101161.56
2023-01-27T22:55:10.451Z,101163.25
2023-01-27T22:57:39.111Z,101163.53
2023-01-27T23:00:07.673Z,101159.91
2023-01-27T23:02:36.927Z,101157.31
2023-01-27T23:05:05.062Z,101160.66
2023-01-27T23:07:33.158Z,101164.09
2023-01-27T23:10:00.837Z,101160.69
2023-01-27T23:12:28.801Z,101156.38
2023-01-27T23:14:59.019Z,101158.09
2023-01-27T23:17:27.349Z,101157.13
2023-01-27T23:19:54.990Z,101158.06
2023-01-27T23:22:22.988Z,101156.31
2023-01-27T23:24:50.671Z,101158.00
2023-01-27T23:27:19.189Z,101161.16
2023-01-27T23:29:47.103Z,101157.88
2023-01-27T23:32:15.219Z,101161.16
2023-01-27T23:34:43.047Z,101159.47
2023-01-27T23:37:11.094Z,101157.13
2023-01-27T23:39:38.832Z,101158.19
2023-01-27T23:42:06.898Z,101149.53
2023-01-27T23:44:34.565Z,101147.69
2023-01-27T23:47:02.579Z,101147.69
2023-01-27T23:49:30.489Z,101147.84
2023-01-27T23:51:58.467Z,101134.53
2023-01-27T23:54:26.133Z,101151.78
2023-01-27T23:56:54.046Z,101152.66
2023-01-27T23:59:21.683Z,101151.16
